Time,TemperatureF,DewpointF,PressureIn,WindDirection,WindDirectionDegrees,WindSpeedMPH,WindSpeedGustMPH,Humidity,HourlyPrecipIn,Conditions,Clouds,dailyrainin,SoftwareType,DateUTC
2013-03-20 00:00:00,46.1,43.9,29.35,South,180,8.9,10.7,92,0.09,,,0.54,WUHU216HW,2013-03-20 07:00:00,
2013-03-20 00:05:00,46.3,44.1,29.35,SSE,158,10.5,11.2,92,0.09,,,0.02,WUHU216HW,2013-03-20 07:05:00,
2013-03-20 00:10:00,46.3,44.1,29.34,SSE,158,10.5,11.2,92,0.08,,,0.02,WUHU216HW,2013-03-20 07:10:00,
2013-03-20 00:15:00,46.4,44.3,29.33,SSE,158,9.8,10.5,92,0.09,,,0.03,WUHU216HW,2013-03-20 07:15:00,
2013-03-20 00:20:00,46.4,44.6,29.33,SSE,158,13.0,15.2,93,0.08,,,0.03,WUHU216HW,2013-03-20 07:20:00,
2013-03-20 00:25:00,46.6,44.7,29.33,SE,135,14.1,16.1,93,0.07,,,0.03,WUHU216HW,2013-03-20 07:25:00,
2013-03-20 00:30:00,46.8,44.6,29.32,SE,135,13.0,21.5,92,0.08,,,0.04,WUHU216HW,2013-03-20 07:30:00,
2013-03-20 00:35:00,46.8,44.6,29.32,SE,135,18.6,21.5,92,0.07,,,0.04,WUHU216HW,2013-03-20 07:35:00,
2013-03-20 00:40:00,46.8,44.6,29.32,SE,135,16.1,20.8,92,0.07,,,0.04,WUHU216HW,2013-03-20 07:40:00,
2013-03-20 00:45:00,46.8,44.6,29.31,SE,135,17.2,20.8,92,0.07,,,0.05,WUHU216HW,2013-03-20 07:45:00,
2013-03-20 00:50:00,47.0,44.8,29.31,SE,135,14.8,20.1,92,0.07,,,0.05,WUHU216HW,2013-03-20 07:50:00,
2013-03-20 00:55:00,47.0,44.8,29.31,SE,135,16.1,20.1,92,0.06,,,0.05,WUHU216HW,2013-03-20 07:55:00,
2013-03-20 01:00:00,47.0,44.8,29.31,SSE,158,17.2,19.2,92,0.06,,,0.06,WUHU216HW,2013-03-20 08:00:00,
2013-03-20 01:05:00,47.2,45.0,29.31,SE,135,12.8,19.2,92,0.05,,,0.07,WUHU216HW,2013-03-20 08:05:00,
2013-03-20 01:10:00,47.2,45.0,29.31,SSE,158,12.1,17.4,92,0.04,,,0.07,WUHU216HW,2013-03-20 08:10:00,
2013-03-20 01:15:00,47.2,45.0,29.31,SE,135,10.1,16.8,92,0.05,,,0.08,WUHU216HW,2013-03-20 08:15:00,
2013-03-20 01:20:00,47.2,45.0,29.31,SE,135,14.8,16.8,92,0.06,,,0.09,WUHU216HW,2013-03-20 08:20:00,
2013-03-20 01:25:00,47.2,45.3,29.31,SSE,158,13.4,14.8,93,0.06,,,0.10,WUHU216HW,2013-03-20 08:25:00,
2013-03-20 01:30:00,47.2,45.0,29.31,SE,135,12.1,14.8,92,0.08,,,0.11,WUHU216HW,2013-03-20 08:30:00,
2013-03-20 01:35:00,47.3,45.2,29.31,SSE,158,7.6,13.4,92,0.09,,,0.13,WUHU216HW,2013-03-20 08:35:00,
2013-03-20 01:40:00,47.3,45.2,29.30,North,0,0.0,13.0,92,0.09,,,0.14,WUHU216HW,2013-03-20 08:40:00,
2013-03-20 01:45:00,47.5,45.4,29.30,SE,135,5.6,7.6,92,0.10,,,0.16,WUHU216HW,2013-03-20 08:45:00,
2013-03-20 01:50:00,47.5,45.4,29.30,North,0,0.0,5.6,92,0.10,,,0.16,WUHU216HW,2013-03-20 08:50:00,
2013-03-20 01:55:00,47.5,45.4,29.30,North,0,0.0,5.6,92,0.09,,,0.16,WUHU216HW,2013-03-20 08:55:00,
2013-03-20 02:00:00,47.7,45.5,29.29,North,0,0.0,0.0,92,0.09,,,0.16,WUHU216HW,2013-03-20 09:00:00,
2013-03-20 02:05:00,47.7,45.5,29.29,North,0,0.0,0.0,92,0.08,,,0.16,WUHU216HW,2013-03-20 09:05:00,
2013-03-20 02:10:00,47.5,45.4,29.29,North,0,0.0,0.0,92,0.07,,,0.16,WUHU216HW,2013-03-20 09:10:00,
2013-03-20 02:15:00,47.5,45.4,29.30,North,0,0.0,0.0,92,0.08,,,0.16,WUHU216HW,2013-03-20 09:15:00,
2013-03-20 02:20:00,47.5,45.4,29.29,North,0,0.0,0.0,92,0.07,,,0.16,WUHU216HW,2013-03-20 09:20:00,
2013-03-20 02:25:00,47.5,45.4,29.29,North,0,0.0,0.0,92,0.06,,,0.18,WUHU216HW,2013-03-20 09:25:00,
2013-03-20 02:30:00,47.5,45.4,29.28,North,0,0.0,0.0,92,0.04,,,0.18,WUHU216HW,2013-03-20 09:30:00,
2013-03-20 02:35:00,47.5,45.4,29.28,North,0,0.0,0.0,92,0.03,,,0.18,WUHU216HW,2013-03-20 09:35:00,
2013-03-20 02:40:00,47.5,45.4,29.28,North,0,0.0,0.0,92,0.04,,,0.18,WUHU216HW,2013-03-20 09:40:00,
2013-03-20 02:45:00,47.5,45.4,29.28,North,0,0.0,0.0,92,0.03,,,0.18,WUHU216HW,2013-03-20 09:45:00,
2013-03-20 02:50:00,47.5,45.4,29.27,North,0,0.0,0.0,92,0.04,,,0.20,WUHU216HW,2013-03-20 09:50:00,
2013-03-20 02:55:00,47.5,45.4,29.27,North,0,0.0,0.0,92,0.05,,,0.20,WUHU216HW,2013-03-20 09:55:00,
2013-03-20 03:00:00,47.3,45.2,29.27,North,0,0.0,0.0,92,0.05,,,0.20,WUHU216HW,2013-03-20 10:00:00,
2013-03-20 03:05:00,47.3,45.2,29.26,North,0,0.0,0.0,92,0.06,,,0.21,WUHU216HW,2013-03-20 10:05:00,
2013-03-20 03:10:00,47.5,45.4,29.26,North,0,0.0,0.0,92,0.07,,,0.23,WUHU216HW,2013-03-20 10:10:00,
2013-03-20 03:15:00,47.5,45.4,29.26,North,0,0.0,0.0,92,0.07,,,0.23,WUHU216HW,2013-03-20 10:15:00,
2013-03-20 03:20:00,47.7,45.5,29.25,North,0,0.0,0.0,92,0.08,,,0.25,WUHU216HW,2013-03-20 10:20:00,
2013-03-20 03:25:00,47.5,45.4,29.25,North,0,0.0,0.0,92,0.07,,,0.25,WUHU216HW,2013-03-20 10:25:00,
2013-03-20 03:30:00,47.5,45.4,29.25,North,0,0.0,0.0,92,0.07,,,0.25,WUHU216HW,2013-03-20 10:30:00,
2013-03-20 03:35:00,47.5,45.4,29.24,North,0,0.0,0.0,92,0.07,,,0.25,WUHU216HW,2013-03-20 10:35:00,
2013-03-20 03:40:00,47.7,45.5,29.24,North,0,0.0,0.0,92,0.07,,,0.25,WUHU216HW,2013-03-20 10:40:00,
2013-03-20 03:45:00,47.9,46.0,29.24,North,0,0.0,0.0,93,0.06,,,0.25,WUHU216HW,2013-03-20 10:45:00,
2013-03-20 03:50:00,48.1,46.2,29.23,North,0,0.0,0.0,93,0.06,,,0.27,WUHU216HW,2013-03-20 10:50:00,
2013-03-20 03:55:00,48.2,46.4,29.23,North,0,0.0,0.0,93,0.06,,,0.27,WUHU216HW,2013-03-20 10:55:00,
2013-03-20 04:00:00,48.4,46.5,29.23,North,0,0.0,0.0,93,0.06,,,0.27,WUHU216HW,2013-03-20 11:00:00,
2013-03-20 04:05:00,48.4,46.5,29.23,North,0,0.0,0.0,93,0.05,,,0.29,WUHU216HW,2013-03-20 11:05:00,
2013-03-20 04:10:00,48.6,46.7,29.23,North,0,0.0,0.0,93,0.07,,,0.31,WUHU216HW,2013-03-20 11:10:00,
2013-03-20 04:15:00,48.6,46.7,29.23,North,0,0.0,0.0,93,0.08,,,0.32,WUHU216HW,2013-03-20 11:15:00,
2013-03-20 04:20:00,48.6,46.7,29.22,North,0,0.0,0.0,93,0.09,,,0.34,WUHU216HW,2013-03-20 11:20:00,
2013-03-20 04:25:00,48.8,46.9,29.22,North,0,0.0,0.0,93,0.10,,,0.35,WUHU216HW,2013-03-20 11:25:00,
2013-03-20 04:30:00,49.0,47.0,29.21,North,0,0.0,0.0,93,0.12,,,0.37,WUHU216HW,2013-03-20 11:30:00,
2013-03-20 04:35:00,49.0,47.0,29.21,North,0,0.0,0.0,93,0.13,,,0.38,WUHU216HW,2013-03-20 11:35:00,
2013-03-20 04:40:00,49.1,46.9,29.21,North,0,0.0,0.0,92,0.13,,,0.39,WUHU216HW,2013-03-20 11:40:00,
2013-03-20 04:45:00,49.0,46.7,29.21,North,0,0.0,0.0,92,0.13,,,0.40,WUHU216HW,2013-03-20 11:45:00,
2013-03-20 04:50:00,49.0,46.7,29.21,North,0,0.0,0.0,92,0.15,,,0.42,WUHU216HW,2013-03-20 11:50:00,
2013-03-20 04:55:00,49.0,46.7,29.21,North,0,0.0,0.0,92,0.16,,,0.44,WUHU216HW,2013-03-20 11:55:00,
2013-03-20 05:00:00,49.1,47.2,29.20,North,0,0.0,0.0,93,0.17,,,0.45,WUHU216HW,2013-03-20 12:00:00,
2013-03-20 05:05:00,49.0,47.0,29.20,North,0,0.0,0.0,93,0.16,,,0.47,WUHU216HW,2013-03-20 12:05:00,
2013-03-20 05:10:00,49.1,47.2,29.19,North,0,0.0,0.0,93,0.18,,,0.49,WUHU216HW,2013-03-20 12:10:00,
2013-03-20 05:15:00,49.1,47.2,29.19,North,0,0.0,0.0,93,0.17,,,0.50,WUHU216HW,2013-03-20 12:15:00,
2013-03-20 05:20:00,49.1,47.2,29.18,North,0,0.0,0.0,93,0.18,,,0.52,WUHU216HW,2013-03-20 12:20:00,
2013-03-20 05:25:00,49.1,47.2,29.19,North,0,0.0,0.0,93,0.16,,,0.52,WUHU216HW,2013-03-20 12:25:00,
2013-03-20 05:30:00,49.1,47.2,29.18,North,0,0.0,0.0,93,0.17,,,0.55,WUHU216HW,2013-03-20 12:30:00,
2013-03-20 05:35:00,49.3,47.3,29.18,North,0,0.0,0.0,93,0.18,,,0.56,WUHU216HW,2013-03-20 12:35:00,
2013-03-20 05:40:00,49.3,47.3,29.18,North,0,0.0,0.0,93,0.19,,,0.58,WUHU216HW,2013-03-20 12:40:00,
2013-03-20 05:45:00,49.5,47.5,29.18,North,0,0.0,0.0,93,0.18,,,0.59,WUHU216HW,2013-03-20 12:45:00,
2013-03-20 05:50:00,49.5,47.5,29.18,North,0,0.0,0.0,93,0.16,,,0.59,WUHU216HW,2013-03-20 12:50:00,
2013-03-20 05:55:00,49.7,47.7,29.18,North,0,0.0,0.0,93,0.15,,,0.60,WUHU216HW,2013-03-20 12:55:00,
2013-03-20 06:00:00,49.7,47.7,29.18,North,0,0.0,0.0,93,0.15,,,0.61,WUHU216HW,2013-03-20 13:00:00,
2013-03-20 06:05:00,49.7,47.7,29.18,North,0,0.0,0.0,93,0.14,,,0.62,WUHU216HW,2013-03-20 13:05:00,
2013-03-20 06:10:00,49.9,47.9,29.19,North,0,0.0,0.0,93,0.13,,,0.63,WUHU216HW,2013-03-20 13:10:00,
2013-03-20 06:15:00,49.9,47.9,29.19,North,0,0.0,0.0,93,0.14,,,0.65,WUHU216HW,2013-03-20 13:15:00,
2013-03-20 06:20:00,50.0,48.1,29.18,North,0,0.0,0.0,93,0.16,,,0.68,WUHU216HW,2013-03-20 13:20:00,
2013-03-20 06:25:00,49.9,47.6,29.19,North,0,0.0,0.0,92,0.14,,,0.69,WUHU216HW,2013-03-20 13:25:00,
2013-03-20 06:30:00,49.9,47.9,29.19,North,0,0.0,0.0,93,0.14,,,0.70,WUHU216HW,2013-03-20 13:30:00,
2013-03-20 06:35:00,49.9,47.9,29.19,North,0,0.0,0.0,93,0.15,,,0.72,WUHU216HW,2013-03-20 13:35:00,
2013-03-20 06:40:00,50.0,47.7,29.19,North,0,0.0,0.0,92,0.16,,,0.74,WUHU216HW,2013-03-20 13:40:00,
2013-03-20 06:45:00,50.2,47.6,29.18,North,0,0.0,0.0,91,0.17,,,0.76,WUHU216HW,2013-03-20 13:45:00,
2013-03-20 06:50:00,50.2,47.6,29.19,North,0,0.0,0.0,91,0.17,,,0.77,WUHU216HW,2013-03-20 13:50:00,
2013-03-20 06:55:00,50.4,47.8,29.19,SE,135,15.0,15.0,91,0.18,,,0.79,WUHU216HW,2013-03-20 13:55:00,
2013-03-20 07:00:00,50.4,47.8,29.18,North,0,0.0,15.0,91,0.20,,,0.81,WUHU216HW,2013-03-20 14:00:00,
2013-03-20 07:05:00,50.4,47.8,29.19,North,0,0.0,15.0,91,0.18,,,0.81,WUHU216HW,2013-03-20 14:05:00,
2013-03-20 07:10:00,50.4,47.8,29.18,North,0,0.0,0.0,91,0.18,,,0.83,WUHU216HW,2013-03-20 14:10:00,
2013-03-20 07:15:00,50.4,47.8,29.19,North,0,0.0,0.0,91,0.17,,,0.83,WUHU216HW,2013-03-20 14:15:00,
2013-03-20 07:20:00,50.4,47.8,29.19,North,0,0.0,0.0,91,0.15,,,0.84,WUHU216HW,2013-03-20 14:20:00,
2013-03-20 07:25:00,50.2,47.6,29.20,North,0,0.0,0.0,91,0.16,,,0.86,WUHU216HW,2013-03-20 14:25:00,
2013-03-20 07:30:00,50.2,47.6,29.20,North,0,0.0,0.0,91,0.16,,,0.88,WUHU216HW,2013-03-20 14:30:00,
2013-03-20 07:35:00,50.0,47.4,29.20,North,0,0.0,0.0,91,0.17,,,0.92,WUHU216HW,2013-03-20 14:35:00,
2013-03-20 07:40:00,50.2,47.3,29.21,North,0,0.0,0.0,90,0.19,,,0.94,WUHU216HW,2013-03-20 14:40:00,
2013-03-20 07:45:00,50.4,47.3,29.22,North,0,0.0,0.0,89,0.18,,,0.95,WUHU216HW,2013-03-20 14:45:00,
2013-03-20 07:50:00,50.4,46.6,29.22,North,0,0.0,0.0,87,0.18,,,0.97,WUHU216HW,2013-03-20 14:50:00,
2013-03-20 07:55:00,50.0,45.9,29.22,North,0,0.0,0.0,86,0.17,,,0.98,WUHU216HW,2013-03-20 14:55:00,
2013-03-20 08:00:00,49.9,45.8,29.22,North,0,0.0,0.0,86,0.17,,,0.99,WUHU216HW,2013-03-20 15:00:00,
2013-03-20 08:05:00,49.5,45.5,29.23,North,0,0.0,0.0,86,0.16,,,0.99,WUHU216HW,2013-03-20 15:05:00,
2013-03-20 08:10:00,49.3,45.3,29.23,North,0,0.0,0.0,86,0.16,,,1.00,WUHU216HW,2013-03-20 15:10:00,
2013-03-20 08:15:00,49.1,45.1,29.24,North,0,0.0,0.0,86,0.15,,,1.00,WUHU216HW,2013-03-20 15:15:00,
2013-03-20 08:20:00,49.1,45.4,29.24,North,0,0.0,0.0,87,0.16,,,1.01,WUHU216HW,2013-03-20 15:20:00,
2013-03-20 08:25:00,49.1,45.1,29.24,North,0,0.0,0.0,86,0.14,,,1.02,WUHU216HW,2013-03-20 15:25:00,
2013-03-20 08:30:00,49.0,44.9,29.24,North,0,0.0,0.0,86,0.11,,,1.02,WUHU216HW,2013-03-20 15:30:00,
2013-03-20 08:35:00,48.8,44.5,29.25,North,0,0.0,0.0,85,0.10,,,1.03,WUHU216HW,2013-03-20 15:35:00,
2013-03-20 08:40:00,48.6,44.6,29.25,North,0,0.0,0.0,86,0.09,,,1.03,WUHU216HW,2013-03-20 15:40:00,
2013-03-20 08:45:00,48.4,43.7,29.26,North,0,0.0,0.0,84,0.06,,,1.03,WUHU216HW,2013-03-20 15:45:00,
2013-03-20 08:50:00,48.2,43.3,29.26,North,0,0.0,0.0,83,0.05,,,1.03,WUHU216HW,2013-03-20 15:50:00,
2013-03-20 08:55:00,48.2,43.6,29.27,North,0,0.0,0.0,84,0.04,,,1.03,WUHU216HW,2013-03-20 15:55:00,
2013-03-20 09:00:00,48.2,43.3,29.28,North,0,0.0,0.0,83,0.04,,,1.03,WUHU216HW,2013-03-20 16:00:00,
2013-03-20 09:05:00,47.9,42.7,29.28,North,0,0.0,0.0,82,0.03,,,1.03,WUHU216HW,2013-03-20 16:05:00,
2013-03-20 09:10:00,47.9,43.3,29.28,North,0,0.0,0.0,84,0.03,,,1.03,WUHU216HW,2013-03-20 16:10:00,
2013-03-20 09:15:00,48.2,43.3,29.29,North,0,0.0,0.0,83,0.03,,,1.03,WUHU216HW,2013-03-20 16:15:00,
2013-03-20 09:20:00,48.2,42.7,29.29,North,0,0.0,0.0,81,0.02,,,1.03,WUHU216HW,2013-03-20 16:20:00,
2013-03-20 09:25:00,48.2,43.3,29.30,North,0,0.0,0.0,83,0.01,,,1.03,WUHU216HW,2013-03-20 16:25:00,
2013-03-20 09:30:00,48.4,43.7,29.30,North,0,0.0,0.0,84,0.01,,,1.03,WUHU216HW,2013-03-20 16:30:00,
2013-03-20 09:35:00,48.6,43.9,29.31,North,0,0.0,0.0,84,0.00,,,1.03,WUHU216HW,2013-03-20 16:35:00,
2013-03-20 09:40:00,48.6,43.7,29.31,North,0,0.0,0.0,83,0.00,,,1.03,WUHU216HW,2013-03-20 16:40:00,
2013-03-20 09:45:00,48.8,43.5,29.32,North,0,0.0,0.0,82,0.00,,,1.03,WUHU216HW,2013-03-20 16:45:00,
2013-03-20 09:50:00,48.4,41.8,29.33,North,0,0.0,0.0,78,0.00,,,1.03,WUHU216HW,2013-03-20 16:50:00,
2013-03-20 09:55:00,48.2,42.7,29.33,North,0,0.0,0.0,81,0.00,,,1.03,WUHU216HW,2013-03-20 16:55:00,
2013-03-20 10:00:00,48.4,43.1,29.33,North,0,0.0,0.0,82,0.00,,,1.03,WUHU216HW,2013-03-20 17:00:00,
2013-03-20 10:05:00,48.4,43.1,29.33,North,0,0.0,0.0,82,0.00,,,1.03,WUHU216HW,2013-03-20 17:05:00,
2013-03-20 10:10:00,48.4,43.1,29.33,North,0,0.0,0.0,82,0.00,,,1.03,WUHU216HW,2013-03-20 17:10:00,
2013-03-20 10:15:00,48.6,43.3,29.34,North,0,0.0,0.0,82,0.01,,,1.04,WUHU216HW,2013-03-20 17:15:00,
2013-03-20 10:20:00,48.4,43.5,29.35,North,0,0.0,0.0,83,0.01,,,1.04,WUHU216HW,2013-03-20 17:20:00,
2013-03-20 10:25:00,48.1,43.1,29.36,North,0,0.0,0.0,83,0.02,,,1.05,WUHU216HW,2013-03-20 17:25:00,
2013-03-20 10:30:00,47.7,42.1,29.36,North,0,0.0,0.0,81,0.03,,,1.06,WUHU216HW,2013-03-20 17:30:00,
2013-03-20 10:35:00,47.5,41.9,29.37,North,0,0.0,0.0,81,0.04,,,1.07,WUHU216HW,2013-03-20 17:35:00,
2013-03-20 10:40:00,47.3,42.1,29.37,North,0,0.0,0.0,82,0.04,,,1.07,WUHU216HW,2013-03-20 17:40:00,
2013-03-20 10:45:00,47.3,42.1,29.37,North,0,0.0,0.0,82,0.04,,,1.07,WUHU216HW,2013-03-20 17:45:00,
2013-03-20 10:50:00,47.5,42.6,29.37,North,0,0.0,0.0,83,0.04,,,1.07,WUHU216HW,2013-03-20 17:50:00,
2013-03-20 10:55:00,47.7,42.8,29.38,South,180,9.8,9.8,83,0.06,,,1.09,WUHU216HW,2013-03-20 17:55:00,
2013-03-20 11:00:00,47.9,42.9,29.37,North,0,0.0,9.8,83,0.07,,,1.10,WUHU216HW,2013-03-20 18:00:00,
2013-03-20 11:05:00,48.2,43.9,29.37,North,0,0.0,9.8,85,0.07,,,1.10,WUHU216HW,2013-03-20 18:05:00,
2013-03-20 11:10:00,49.0,44.3,29.38,North,0,0.0,0.0,84,0.07,,,1.10,WUHU216HW,2013-03-20 18:10:00,
2013-03-20 11:15:00,49.1,43.8,29.38,North,0,0.0,0.0,82,0.06,,,1.10,WUHU216HW,2013-03-20 18:15:00,
2013-03-20 11:20:00,48.6,43.3,29.39,North,0,0.0,0.0,82,0.06,,,1.10,WUHU216HW,2013-03-20 18:20:00,
2013-03-20 11:25:00,48.1,42.8,29.39,North,0,0.0,0.0,82,0.05,,,1.11,WUHU216HW,2013-03-20 18:25:00,
2013-03-20 11:30:00,47.7,42.1,29.40,North,0,0.0,0.0,81,0.04,,,1.11,WUHU216HW,2013-03-20 18:30:00,
2013-03-20 11:35:00,47.3,42.1,29.40,North,0,0.0,0.0,82,0.05,,,1.12,WUHU216HW,2013-03-20 18:35:00,
2013-03-20 11:40:00,47.7,42.8,29.41,North,0,0.0,0.0,83,0.05,,,1.12,WUHU216HW,2013-03-20 18:40:00,
2013-03-20 11:46:00,47.5,42.6,29.41,North,0,0.0,0.0,83,0.07,,,1.14,WUHU216HW,2013-03-20 18:46:00,
2013-03-20 11:51:00,47.2,41.9,29.41,North,0,0.0,0.0,82,0.07,,,1.14,WUHU216HW,2013-03-20 18:51:00,
2013-03-20 11:56:00,47.7,42.8,29.42,North,0,0.0,0.0,83,0.04,,,1.14,WUHU216HW,2013-03-20 18:56:00,
2013-03-20 12:01:00,47.7,42.5,29.42,North,0,0.0,0.0,82,0.04,,,1.14,WUHU216HW,2013-03-20 19:01:00,
2013-03-20 12:06:00,47.9,42.3,29.42,North,0,0.0,0.0,81,0.04,,,1.14,WUHU216HW,2013-03-20 19:06:00,
2013-03-20 12:11:00,48.4,43.5,29.42,North,0,0.0,0.0,83,0.04,,,1.14,WUHU216HW,2013-03-20 19:11:00,
2013-03-20 12:16:00,48.4,43.1,29.44,WSW,248,2.5,4.0,82,0.06,,,1.16,WUHU216HW,2013-03-20 19:16:00,
2013-03-20 12:21:00,47.7,42.1,29.44,NNW,338,6.7,6.7,81,0.07,,,1.17,WUHU216HW,2013-03-20 19:21:00,
2013-03-20 12:26:00,47.0,41.1,29.44,North,0,0.0,6.7,80,0.06,,,1.17,WUHU216HW,2013-03-20 19:26:00,
2013-03-20 12:31:00,47.2,41.3,29.44,West,270,2.0,11.4,80,0.05,,,1.17,WUHU216HW,2013-03-20 19:31:00,
2013-03-20 12:35:00,47.2,41.3,29.45,SSW,203,6.9,11.4,80,0.05,,,1.17,WUHU216HW,2013-03-20 19:35:00,
2013-03-20 12:41:00,46.8,40.7,29.45,WNW,293,2.5,8.9,79,0.06,,,1.18,WUHU216HW,2013-03-20 19:41:00,
2013-03-20 12:45:00,46.6,41.1,29.46,WNW,293,3.8,8.9,81,0.04,,,1.18,WUHU216HW,2013-03-20 19:45:00,
2013-03-20 12:50:00,47.2,41.7,29.46,WSW,248,3.4,6.5,81,0.04,,,1.18,WUHU216HW,2013-03-20 19:50:00,
2013-03-20 12:55:00,48.2,42.7,29.46,SW,225,4.0,6.5,81,0.04,,,1.18,WUHU216HW,2013-03-20 19:55:00,
2013-03-20 13:00:00,48.6,42.3,29.48,West,270,0.4,4.0,79,0.04,,,1.18,WUHU216HW,2013-03-20 20:00:00,
2013-03-20 13:05:00,47.3,40.5,29.48,WSW,248,8.3,8.3,77,0.06,,,1.20,WUHU216HW,2013-03-20 20:05:00,
2013-03-20 13:11:00,46.1,40.0,29.48,NNW,338,4.7,9.4,79,0.07,,,1.21,WUHU216HW,2013-03-20 20:11:00,
2013-03-20 13:16:00,46.1,41.0,29.49,WNW,293,3.4,9.4,82,0.05,,,1.22,WUHU216HW,2013-03-20 20:16:00,
2013-03-20 13:21:00,46.4,41.0,29.50,South,180,1.8,4.7,81,0.05,,,1.22,WUHU216HW,2013-03-20 20:21:00,
2013-03-20 13:26:00,46.1,40.3,29.50,NW,315,6.9,14.3,80,0.06,,,1.23,WUHU216HW,2013-03-20 20:26:00,
2013-03-20 13:31:00,45.5,40.1,29.49,SSE,158,4.7,14.3,81,0.07,,,1.24,WUHU216HW,2013-03-20 20:31:00,
2013-03-20 13:36:00,45.4,39.9,29.49,SSW,203,2.5,7.6,81,0.08,,,1.25,WUHU216HW,2013-03-20 20:36:00,
2013-03-20 13:41:00,46.1,41.0,29.49,North,0,0.0,7.6,82,0.07,,,1.25,WUHU216HW,2013-03-20 20:41:00,
2013-03-20 13:46:00,46.8,41.6,29.50,North,0,0.0,2.5,82,0.07,,,1.25,WUHU216HW,2013-03-20 20:46:00,
2013-03-20 13:51:00,47.2,41.9,29.50,North,0,0.0,0.0,82,0.07,,,1.25,WUHU216HW,2013-03-20 20:51:00,
2013-03-20 13:56:00,47.3,41.8,29.51,North,0,0.0,0.0,81,0.08,,,1.26,WUHU216HW,2013-03-20 20:56:00,
2013-03-20 14:01:00,46.8,40.7,29.52,North,0,0.0,0.0,79,0.09,,,1.27,WUHU216HW,2013-03-20 21:01:00,
2013-03-20 14:06:00,46.1,40.3,29.51,North,0,0.0,0.0,80,0.07,,,1.28,WUHU216HW,2013-03-20 21:06:00,
2013-03-20 14:11:00,46.4,41.3,29.51,North,0,0.0,0.0,82,0.08,,,1.29,WUHU216HW,2013-03-20 21:11:00,
2013-03-20 14:16:00,46.4,41.0,29.52,North,0,0.0,0.0,81,0.07,,,1.29,WUHU216HW,2013-03-20 21:16:00,
2013-03-20 14:21:00,46.1,40.6,29.52,North,0,0.0,0.0,81,0.08,,,1.30,WUHU216HW,2013-03-20 21:21:00,
2013-03-20 14:26:00,45.9,40.4,29.52,North,0,0.0,0.0,81,0.06,,,1.30,WUHU216HW,2013-03-20 21:26:00,
2013-03-20 14:31:00,46.1,41.0,29.52,North,0,0.0,0.0,82,0.05,,,1.30,WUHU216HW,2013-03-20 21:31:00,
2013-03-20 14:36:00,46.4,41.3,29.52,North,0,0.0,0.0,82,0.05,,,1.30,WUHU216HW,2013-03-20 21:36:00,
2013-03-20 14:41:00,46.6,41.5,29.53,North,0,0.0,0.0,82,0.05,,,1.30,WUHU216HW,2013-03-20 21:41:00,
2013-03-20 14:46:00,45.9,40.4,29.53,North,0,0.0,0.0,81,0.07,,,1.32,WUHU216HW,2013-03-20 21:46:00,
2013-03-20 14:51:00,45.7,40.2,29.54,North,0,0.0,0.0,81,0.07,,,1.32,WUHU216HW,2013-03-20 21:51:00,
2013-03-20 14:56:00,45.4,39.6,29.54,North,0,0.0,0.0,80,0.06,,,1.32,WUHU216HW,2013-03-20 21:56:00,
2013-03-20 15:01:00,45.5,40.4,29.54,NNW,338,2.5,4.0,82,0.05,,,1.32,WUHU216HW,2013-03-20 22:01:00,
2013-03-20 15:06:00,46.1,40.6,29.54,WNW,293,4.5,6.3,81,0.03,,,1.32,WUHU216HW,2013-03-20 22:06:00,
2013-03-20 15:11:00,46.8,41.3,29.54,SSE,158,3.8,6.3,81,0.03,,,1.32,WUHU216HW,2013-03-20 22:11:00,
2013-03-20 15:16:00,47.2,41.3,29.54,SW,225,2.7,5.8,80,0.02,,,1.32,WUHU216HW,2013-03-20 22:16:00,
2013-03-20 15:21:00,47.3,40.2,29.54,WNW,293,8.5,8.5,76,0.02,,,1.32,WUHU216HW,2013-03-20 22:21:00,
2013-03-20 15:26:00,47.0,40.1,29.55,NW,315,1.8,8.5,77,0.02,,,1.32,WUHU216HW,2013-03-20 22:26:00,
2013-03-20 15:31:00,46.4,40.3,29.56,SW,225,5.4,8.5,79,0.03,,,1.33,WUHU216HW,2013-03-20 22:31:00,
2013-03-20 15:36:00,46.1,40.6,29.56,West,270,2.2,7.2,81,0.04,,,1.34,WUHU216HW,2013-03-20 22:36:00,
2013-03-20 15:41:00,45.7,40.0,29.57,SW,225,2.2,5.4,80,0.02,,,1.34,WUHU216HW,2013-03-20 22:41:00,
2013-03-20 15:46:00,45.4,40.5,29.57,NNW,338,4.3,4.7,83,0.02,,,1.34,WUHU216HW,2013-03-20 22:46:00,
2013-03-20 15:51:00,45.4,40.2,29.57,West,270,1.8,6.7,82,0.03,,,1.35,WUHU216HW,2013-03-20 22:51:00,
2013-03-20 15:56:00,45.2,39.1,29.58,WSW,248,5.1,6.7,79,0.03,,,1.35,WUHU216HW,2013-03-20 22:56:00,
2013-03-20 16:01:00,45.4,39.9,29.58,WSW,248,4.9,6.9,81,0.03,,,1.35,WUHU216HW,2013-03-20 23:01:00,
2013-03-20 16:06:00,45.7,39.6,29.59,WNW,293,1.8,6.9,79,0.03,,,1.35,WUHU216HW,2013-03-20 23:06:00,
2013-03-20 16:11:00,45.9,40.1,29.59,NNW,338,6.5,6.5,80,0.04,,,1.36,WUHU216HW,2013-03-20 23:11:00,
2013-03-20 16:16:00,45.4,39.2,29.60,NNW,338,5.1,9.2,79,0.04,,,1.36,WUHU216HW,2013-03-20 23:16:00,
2013-03-20 16:21:00,45.0,39.2,29.60,WNW,293,2.9,9.2,80,0.05,,,1.37,WUHU216HW,2013-03-20 23:21:00,
2013-03-20 16:26:00,44.6,39.2,29.60,WNW,293,4.5,10.1,81,0.06,,,1.38,WUHU216HW,2013-03-20 23:26:00,
2013-03-20 16:31:00,45.0,39.9,29.60,North,0,0.0,10.1,82,0.04,,,1.38,WUHU216HW,2013-03-20 23:31:00,
2013-03-20 16:36:00,45.4,39.9,29.61,North,0,0.0,4.5,81,0.04,,,1.38,WUHU216HW,2013-03-20 23:36:00,
2013-03-20 16:41:00,45.0,39.5,29.62,North,0,0.0,0.0,81,0.04,,,1.38,WUHU216HW,2013-03-20 23:41:00,
2013-03-20 16:46:00,45.4,40.2,29.62,North,0,0.0,0.0,82,0.03,,,1.38,WUHU216HW,2013-03-20 23:46:00,
2013-03-20 16:51:00,45.7,40.0,29.61,North,0,0.0,0.0,80,0.04,,,1.39,WUHU216HW,2013-03-20 23:51:00,
2013-03-20 16:56:00,45.7,39.2,29.61,North,0,0.0,0.0,78,0.04,,,1.39,WUHU216HW,2013-03-20 23:56:00,
2013-03-20 17:01:00,45.7,39.2,29.62,North,0,0.0,0.0,78,0.04,,,1.39,WUHU216HW,2013-03-21 00:01:00,
2013-03-20 17:06:00,45.4,38.9,29.62,North,0,0.0,0.0,78,0.03,,,1.39,WUHU216HW,2013-03-21 00:06:00,
2013-03-20 17:11:00,45.4,39.2,29.63,North,0,0.0,0.0,79,0.03,,,1.39,WUHU216HW,2013-03-21 00:11:00,
2013-03-20 17:16:00,44.8,39.1,29.63,North,0,0.0,0.0,80,0.03,,,1.39,WUHU216HW,2013-03-21 00:16:00,
2013-03-20 17:21:00,44.1,38.6,29.64,North,0,0.0,0.0,81,0.03,,,1.40,WUHU216HW,2013-03-21 00:21:00,
2013-03-20 17:26:00,43.7,38.3,29.64,North,0,0.0,0.0,81,0.03,,,1.41,WUHU216HW,2013-03-21 00:26:00,
2013-03-20 17:31:00,43.7,38.3,29.64,North,0,0.0,0.0,81,0.03,,,1.41,WUHU216HW,2013-03-21 00:31:00,
2013-03-20 17:36:00,43.9,38.8,29.65,North,0,0.0,0.0,82,0.03,,,1.41,WUHU216HW,2013-03-21 00:36:00,
2013-03-20 17:41:00,44.1,38.6,29.65,North,0,0.0,0.0,81,0.03,,,1.41,WUHU216HW,2013-03-21 00:41:00,
2013-03-20 17:46:00,44.3,38.8,29.65,North,0,0.0,0.0,81,0.02,,,1.41,WUHU216HW,2013-03-21 00:46:00,
2013-03-20 17:51:00,44.3,38.8,29.65,North,0,0.0,0.0,81,0.02,,,1.41,WUHU216HW,2013-03-21 00:51:00,
2013-03-20 17:56:00,44.5,39.3,29.65,WSW,248,2.7,2.7,82,0.02,,,1.41,WUHU216HW,2013-03-21 00:56:00,
2013-03-20 18:01:00,44.5,38.3,29.65,WNW,293,3.4,5.4,79,0.02,,,1.41,WUHU216HW,2013-03-21 01:01:00,
2013-03-20 18:06:00,44.3,37.8,29.66,West,270,0.4,5.8,78,0.02,,,1.41,WUHU216HW,2013-03-21 01:06:00,
2013-03-20 18:11:00,43.6,36.8,29.66,WNW,293,3.4,8.9,77,0.02,,,1.41,WUHU216HW,2013-03-21 01:11:00,
2013-03-20 18:16:00,43.4,37.0,29.67,WSW,248,3.8,8.9,78,0.02,,,1.41,WUHU216HW,2013-03-21 01:16:00,
2013-03-20 18:21:00,43.2,36.8,29.67,SW,225,5.1,6.0,78,0.01,,,1.41,WUHU216HW,2013-03-21 01:21:00,
2013-03-20 18:26:00,43.2,36.8,29.67,WSW,248,0.7,5.1,78,0.00,,,1.41,WUHU216HW,2013-03-21 01:26:00,
2013-03-20 18:31:00,43.2,37.1,29.68,NW,315,4.7,4.7,79,0.00,,,1.41,WUHU216HW,2013-03-21 01:31:00,
2013-03-20 18:36:00,43.0,36.9,29.67,NNW,338,8.5,8.5,79,0.00,,,1.41,WUHU216HW,2013-03-21 01:36:00,
2013-03-20 18:41:00,42.7,36.9,29.68,NNW,338,3.4,8.5,80,0.00,,,1.41,WUHU216HW,2013-03-21 01:41:00,
2013-03-20 18:46:00,42.1,36.6,29.69,WNW,293,5.4,7.4,81,0.00,,,1.41,WUHU216HW,2013-03-21 01:46:00,
2013-03-20 18:51:00,41.8,36.6,29.70,WSW,248,1.8,6.5,82,0.00,,,1.41,WUHU216HW,2013-03-21 01:51:00,
2013-03-20 18:57:00,41.8,36.0,29.70,WSW,248,2.2,6.7,80,0.00,,,1.41,WUHU216HW,2013-03-21 01:57:00,
2013-03-20 19:02:00,41.9,36.5,29.70,SSE,158,4.0,6.7,81,0.01,,,1.42,WUHU216HW,2013-03-21 02:02:00,
2013-03-20 19:07:00,42.1,36.6,29.70,SE,135,0.0,4.3,81,0.01,,,1.42,WUHU216HW,2013-03-21 02:07:00,
2013-03-20 19:12:00,41.9,36.5,29.70,WNW,293,1.6,4.3,81,0.01,,,1.42,WUHU216HW,2013-03-21 02:12:00,
2013-03-20 19:17:00,41.8,36.3,29.70,West,270,0.4,2.7,81,0.01,,,1.42,WUHU216HW,2013-03-21 02:17:00,
2013-03-20 19:22:00,41.4,36.3,29.70,NNW,338,2.5,3.8,82,0.01,,,1.42,WUHU216HW,2013-03-21 02:22:00,
2013-03-20 19:27:00,41.2,36.1,29.70,WNW,293,3.6,3.8,82,0.01,,,1.42,WUHU216HW,2013-03-21 02:27:00,
2013-03-20 19:32:00,40.9,35.7,29.71,West,270,0.4,3.6,82,0.01,,,1.42,WUHU216HW,2013-03-21 02:32:00,
2013-03-20 19:37:00,40.7,35.8,29.72,WSW,248,1.1,2.9,83,0.01,,,1.42,WUHU216HW,2013-03-21 02:37:00,
2013-03-20 19:42:00,40.7,36.2,29.72,SSE,158,2.2,2.2,84,0.02,,,1.44,WUHU216HW,2013-03-21 02:42:00,
2013-03-20 19:47:00,40.7,36.2,29.73,West,270,1.3,3.1,84,0.02,,,1.44,WUHU216HW,2013-03-21 02:47:00,
2013-03-20 19:52:00,40.3,35.8,29.72,North,0,0.2,3.1,84,0.02,,,1.44,WUHU216HW,2013-03-21 02:52:00,
2013-03-20 19:57:00,40.3,35.8,29.73,NE,45,0.0,2.5,84,0.01,,,1.44,WUHU216HW,2013-03-21 02:57:00,
2013-03-20 20:02:00,40.3,35.8,29.73,SSE,158,1.6,2.5,84,0.01,,,1.44,WUHU216HW,2013-03-21 03:02:00,
2013-03-20 20:07:00,40.3,35.8,29.74,North,0,0.0,1.6,84,0.01,,,1.44,WUHU216HW,2013-03-21 03:07:00,
2013-03-20 20:12:00,40.3,35.8,29.74,SE,135,4.3,4.3,84,0.01,,,1.44,WUHU216HW,2013-03-21 03:12:00,
2013-03-20 20:17:00,40.3,35.8,29.74,SE,135,1.8,4.3,84,0.01,,,1.44,WUHU216HW,2013-03-21 03:17:00,
2013-03-20 20:22:00,40.0,35.5,29.75,North,0,0.0,4.3,84,0.01,,,1.44,WUHU216HW,2013-03-21 03:22:00,
2013-03-20 20:27:00,40.0,35.5,29.75,SE,135,2.5,2.9,84,0.01,,,1.44,WUHU216HW,2013-03-21 03:27:00,
2013-03-20 20:32:00,40.0,35.5,29.75,SE,135,2.5,2.9,84,0.01,,,1.44,WUHU216HW,2013-03-21 03:32:00,
2013-03-20 20:37:00,39.6,35.2,29.75,West,270,2.5,4.7,84,0.01,,,1.44,WUHU216HW,2013-03-21 03:37:00,
2013-03-20 20:42:00,38.9,34.7,29.76,South,180,1.8,4.7,85,0.00,,,1.44,WUHU216HW,2013-03-21 03:42:00,
2013-03-20 20:47:00,38.7,34.6,29.76,SSW,203,2.0,3.8,85,0.00,,,1.44,WUHU216HW,2013-03-21 03:47:00,
2013-03-20 20:52:00,38.7,34.6,29.76,NNW,338,0.4,2.0,85,0.00,,,1.44,WUHU216HW,2013-03-21 03:52:00,
2013-03-20 20:57:00,38.9,34.7,29.77,SSW,203,1.1,2.0,85,0.00,,,1.44,WUHU216HW,2013-03-21 03:57:00,
2013-03-20 21:00:00,38.9,34.7,29.77,SE,135,1.1,1.8,85,0.00,,,1.44,WUHU216HW,2013-03-21 04:00:00,
2013-03-20 21:05:00,38.9,34.7,29.77,South,180,1.3,1.8,85,0.00,,,1.44,WUHU216HW,2013-03-21 04:05:00,
2013-03-20 21:10:00,38.9,34.7,29.78,SE,135,1.6,2.9,85,0.00,,,1.44,WUHU216HW,2013-03-21 04:10:00,
2013-03-20 21:15:00,38.9,35.0,29.78,WSW,248,2.2,4.5,86,0.00,,,1.44,WUHU216HW,2013-03-21 04:15:00,
2013-03-20 21:20:00,38.5,34.7,29.78,SE,135,2.5,4.5,86,0.00,,,1.44,WUHU216HW,2013-03-21 04:20:00,
2013-03-20 21:25:00,38.5,34.9,29.79,WNW,293,2.9,2.9,87,0.00,,,1.44,WUHU216HW,2013-03-21 04:25:00,
2013-03-20 21:30:00,38.2,34.6,29.79,WSW,248,0.4,3.4,87,0.00,,,1.44,WUHU216HW,2013-03-21 04:30:00,
2013-03-20 21:35:00,38.2,34.6,29.80,ESE,113,1.8,3.4,87,0.00,,,1.44,WUHU216HW,2013-03-21 04:35:00,
2013-03-20 21:40:00,38.2,34.6,29.80,SE,135,0.7,3.4,87,0.00,,,1.44,WUHU216HW,2013-03-21 04:40:00,
2013-03-20 21:45:00,38.3,34.7,29.81,SE,135,2.0,3.4,87,0.00,,,1.44,WUHU216HW,2013-03-21 04:45:00,
2013-03-20 21:50:00,38.3,34.7,29.81,SSE,158,2.0,2.9,87,0.00,,,1.44,WUHU216HW,2013-03-21 04:50:00,
2013-03-20 21:55:00,38.5,34.9,29.81,South,180,1.6,4.0,87,0.00,,,1.44,WUHU216HW,2013-03-21 04:55:00,
2013-03-20 22:00:00,38.2,34.6,29.81,SE,135,0.9,4.0,87,0.00,,,1.44,WUHU216HW,2013-03-21 05:00:00,
2013-03-20 22:05:00,38.2,34.6,29.82,SSW,203,0.4,3.1,87,0.00,,,1.44,WUHU216HW,2013-03-21 05:05:00,
2013-03-20 22:10:00,38.2,34.6,29.83,SSW,203,0.9,1.8,87,0.00,,,1.44,WUHU216HW,2013-03-21 05:10:00,
2013-03-20 22:15:00,38.2,33.8,29.83,WSW,248,6.9,13.6,84,0.01,,,1.44,WUHU216HW,2013-03-21 05:15:00,
2013-03-20 22:20:00,38.0,33.8,29.83,WSW,248,2.9,13.6,85,0.01,,,1.44,WUHU216HW,2013-03-21 05:20:00,
2013-03-20 22:25:00,37.8,33.7,29.83,SW,225,1.8,6.9,85,0.01,,,1.44,WUHU216HW,2013-03-21 05:25:00,
2013-03-20 22:30:00,37.6,33.8,29.83,SSW,203,1.1,3.1,86,0.01,,,1.44,WUHU216HW,2013-03-21 05:30:00,
2013-03-20 22:35:00,37.8,33.9,29.83,SSW,203,1.6,4.7,86,0.01,,,1.44,WUHU216HW,2013-03-21 05:35:00,
2013-03-20 22:40:00,37.8,33.9,29.83,WSW,248,0.0,4.7,86,0.01,,,1.44,WUHU216HW,2013-03-21 05:40:00,
2013-03-20 22:45:00,37.8,33.9,29.83,WSW,248,0.0,2.0,86,0.01,,,1.44,WUHU216HW,2013-03-21 05:45:00,
2013-03-20 22:50:00,37.6,33.8,29.83,SSE,158,0.0,0.4,86,0.01,,,1.44,WUHU216HW,2013-03-21 05:50:00,
2013-03-20 22:55:00,37.6,34.0,29.84,West,270,0.4,1.1,87,0.01,,,1.44,WUHU216HW,2013-03-21 05:55:00,
2013-03-20 23:00:00,37.6,34.0,29.85,SE,135,2.2,2.2,87,0.02,,,1.45,WUHU216HW,2013-03-21 06:00:00,
2013-03-20 23:05:00,37.4,33.8,29.85,North,0,0.0,2.2,87,0.03,,,1.46,WUHU216HW,2013-03-21 06:05:00,
2013-03-20 23:10:00,37.6,34.0,29.85,North,0,0.0,2.2,87,0.04,,,1.47,WUHU216HW,2013-03-21 06:10:00,
2013-03-20 23:15:00,37.6,34.0,29.85,North,0,0.0,0.0,87,0.05,,,1.49,WUHU216HW,2013-03-21 06:15:00,
2013-03-20 23:20:00,37.6,34.0,29.85,North,0,0.0,0.0,87,0.06,,,1.51,WUHU216HW,2013-03-21 06:20:00,
2013-03-20 23:25:00,37.4,33.8,29.85,North,0,0.0,0.0,87,0.06,,,1.51,WUHU216HW,2013-03-21 06:25:00,
2013-03-20 23:30:00,37.3,33.7,29.85,North,0,0.0,0.0,87,0.06,,,1.51,WUHU216HW,2013-03-21 06:30:00,
2013-03-20 23:35:00,37.1,33.9,29.85,North,0,0.0,0.0,88,0.06,,,1.51,WUHU216HW,2013-03-21 06:35:00,
2013-03-20 23:40:00,36.7,33.1,29.86,North,0,0.0,0.0,87,0.06,,,1.51,WUHU216HW,2013-03-21 06:40:00,
2013-03-20 23:45:00,36.7,33.5,29.85,North,0,0.0,0.0,88,0.06,,,1.51,WUHU216HW,2013-03-21 06:45:00,
2013-03-20 23:50:00,36.7,33.5,29.85,North,0,0.0,0.0,88,0.06,,,1.51,WUHU216HW,2013-03-21 06:50:00,
2013-03-20 23:55:00,36.9,33.7,29.85,North,0,0.0,0.0,88,0.06,,,1.51,WUHU216HW,2013-03-21 06:55:00,